Time;durP1;ratioP1;P1;durP2;ratioP2;P2;SDS_P1;SDS_P2;PMS_P1;PMS_P2;Temp;Humidity;BMP_temperature;BMP_pressure;BME280_temperature;BME280_humidity;BME280_pressure;Samples;Min_cycle;Max_cycle;Signal;HPM_P1;HPM_P2
2024/01/27 00:01:21;;;;;;;9.90;1.60;;;;;;;5.21;84.24;101119.27;111080;1209;98910;-67
2024/01/27 00:03:46;;;;;;;19.10;3.60;;;;;;;5.21;83.77;101137.86;111108;1206;99002;-66
2024/01/27 00:06:11;;;;;;;14.00;2.20;;;;;;;5.19;83.79;101128.36;111027;1208;138332;-66
2024/01/27 00:08:36;;;;;;;11.80;2.10;;;;;;;5.18;83.60;101125.73;111134;1209;98938;-66
2024/01/27 00:11:02;;;;;;;11.40;1.90;;;;;;;5.17;83.66;101130.34;110995;1215;138500;-66
2024/01/27 00:13:27;;;;;;;21.80;2.40;;;;;;;5.16;83.62;101127.16;111202;1208;99069;-66
2024/01/27 00:15:54;;;;;;;13.40;2.20;;;;;;;5.16;83.58;101120.96;111016;1209;112978;-66
2024/01/27 00:18:20;;;;;;;16.40;1.90;;;;;;;5.17;83.46;101134.58;110951;1206;138841;-65
2024/01/27 00:20:45;;;;;;;7.30;1.70;;;;;;;5.17;83.33;101139.02;111030;1208;99046;-66
2024/01/27 00:23:11;;;;;;;7.50;1.50;;;;;;;5.16;83.17;101153.91;111057;1224;138602;-66
2024/01/27 00:25:36;;;;;;;12.10;2.50;;;;;;;5.14;83.29;101148.81;111046;1206;99348;-66
2024/01/27 00:28:01;;;;;;;12.60;2.50;;;;;;;5.15;83.02;101152.16;110969;1206;140356;-66
2024/01/27 00:30:26;;;;;;;7.50;2.10;;;;;;;5.14;82.97;101164.91;111061;1206;97787;-66
2024/01/27 00:32:52;;;;;;;14.20;2.40;;;;;;;5.16;82.98;101157.46;111084;1209;98961;-66
2024/01/27 00:35:17;;;;;;;12.00;1.80;;;;;;;5.16;82.90;101157.45;111128;1215;139281;-66
2024/01/27 00:37:43;;;;;;;7.30;1.30;;;;;;;5.16;82.84;101168.44;111084;1206;99091;-66
2024/01/27 00:40:10;;;;;;;9.50;1.90;;;;;;;5.14;82.66;101159.61;111012;1211;138684;-66
2024/01/27 00:42:35;;;;;;;7.50;1.50;;;;;;;5.13;82.72;101167.06;111042;1206;112809;-66
2024/01/27 00:45:00;;;;;;;7.30;1.10;;;;;;;5.13;82.50;101173.80;111117;1209;99017;-66
2024/01/27 00:47:26;;;;;;;8.50;1.90;;;;;;;5.11;82.54;101180.73;111094;1206;138655;-66
2024/01/27 00:49:51;;;;;;;6.70;1.70;;;;;;;5.09;82.41;101176.67;111080;1204;99032;-66
2024/01/27 00:52:17;;;;;;;18.10;2.30;;;;;;;5.10;82.42;101177.73;111109;1220;138730;-66
2024/01/27 00:54:42;;;;;;;11.80;1.80;;;;;;;5.09;82.35;101190.32;111118;1207;108020;-66
2024/01/27 00:57:07;;;;;;;12.10;1.80;;;;;;;5.09;82.07;101188.20;111203;1207;99028;-67
2024/01/27 00:59:33;;;;;;;12.50;1.80;;;;;;;5.08;82.15;101196.17;111079;1219;138793;-66
2024/01/27 01:01:58;;;;;;;14.70;2.10;;;;;;;5.07;82.18;101190.52;111165;1203;99066;-66
2024/01/27 01:04:23;;;;;;;14.10;2.20;;;;;;;5.08;82.11;101202.72;111050;1218;138875;-65
2024/01/27 01:06:48;;;;;;;8.10;2.10;;;;;;;5.07;81.97;101193.17;111112;1208;99973;-65
2024/01/27 01:09:13;;;;;;;14.20;1.70;;;;;;;5.06;82.01;101203.46;111296;1208;99068;-67
2024/01/27 01:11:39;;;;;;;14.50;1.90;;;;;;;5.04;81.68;101218.01;110979;1208;138720;-65
2024/01/27 01:14:04;;;;;;;11.90;2.00;;;;;;;5.02;81.71;101199.80;111158;1212;100034;-65
2024/01/27 01:16:29;;;;;;;9.10;1.70;;;;;;;5.00;81.59;101198.23;111088;1209;137943;-65
2024/01/27 01:18:55;;;;;;;15.90;2.00;;;;;;;4.99;81.63;101197.35;111099;1203;99079;-65
2024/01/27 01:21:20;;;;;;;12.00;1.90;;;;;;;4.99;81.52;101204.25;111262;1203;99720;-65
2024/01/27 01:23:46;;;;;;;14.70;1.70;;;;;;;4.98;81.42;101203.55;111014;1205;138670;-65
2024/01/27 01:26:11;;;;;;;17.70;1.90;;;;;;;4.98;81.37;101199.13;111160;1209;99027;-66
2024/01/27 01:28:37;;;;;;;5.20;1.20;;;;;;;4.97;81.22;101204.10;111089;1203;140453;-65
2024/01/27 01:31:02;;;;;;;10.30;2.30;;;;;;;4.95;81.12;101210.15;111156;1202;99045;-66
2024/01/27 01:33:27;;;;;;;9.40;2.30;;;;;;;4.95;81.18;101202.52;111265;1206;98945;-66
2024/01/27 01:35:53;;;;;;;10.00;2.10;;;;;;;4.95;81.09;101200.40;111057;1209;140048;-66
2024/01/27 01:38:18;;;;;;;20.20;3.10;;;;;;;4.96;80.91;101202.17;111165;1203;98928;-66
2024/01/27 01:40:44;;;;;;;16.00;2.20;;;;;;;4.93;80.93;101214.95;111049;1203;139183;-65
2024/01/27 01:43:11;;;;;;;16.30;1.80;;;;;;;4.91;80.87;101207.35;111157;1208;100921;-65
2024/01/27 01:45:36;;;;;;;12.40;1.80;;;;;;;4.90;80.73;101202.06;111178;1207;99027;-65
2024/01/27 01:48:03;;;;;;;14.30;3.30;;;;;;;4.86;80.59;101210.94;111054;1208;140719;-66
2024/01/27 01:50:29;;;;;;;14.50;2.30;;;;;;;4.86;80.67;101206.35;111254;1208;99044;-65
2024/01/27 01:52:55;;;;;;;13.70;2.10;;;;;;;4.85;80.50;101213.26;111091;1209;138807;-66
2024/01/27 01:55:20;;;;;;;11.00;2.30;;;;;;;4.85;80.37;101215.91;111198;1208;100475;-66
2024/01/27 01:57:46;;;;;;;18.10;2.20;;;;;;;4.84;80.36;101212.74;111109;1208;98973;-66
2024/01/27 02:00:13;;;;;;;14.00;1.90;;;;;;;4.83;80.25;101201.06;111252;1208;140216;-65
2024/01/27 02:02:38;;;;;;;14.90;2.60;;;;;;;4.83;80.20;101205.50;111258;1207;99045;-65
2024/01/27 02:05:04;;;;;;;14.60;1.90;;;;;;;4.82;80.19;101201.25;111090;1208;138814;-66
2024/01/27 02:07:30;;;;;;;12.80;2.70;;;;;;;4.82;80.12;101215.95;111277;1209;98922;-65
2024/01/27 02:09:55;;;;;;;9.50;1.40;;;;;;;4.83;79.96;101220.20;111172;1206;99038;-67
2024/01/27 02:12:20;;;;;;;10.20;2.20;;;;;;;4.83;80.09;101207.45;110971;1208;139486;-66
2024/01/27 02:14:46;;;;;;;9.40;1.50;;;;;;;4.84;79.98;101208.32;111044;1206;100327;-66
2024/01/27 02:17:11;;;;;;;13.70;2.10;;;;;;;4.83;80.01;101229.23;111087;1209;139669;-66
2024/01/27 02:19:37;;;;;;;10.60;2.20;;;;;;;4.82;79.75;101211.34;111109;1207;98941;-65
2024/01/27 02:22:02;;;;;;;11.20;1.80;;;;;;;4.83;79.80;101212.23;111031;1208;139167;-66
2024/01/27 02:24:28;;;;;;;13.10;1.60;;;;;;;4.81;79.70;101221.98;111285;1208;98944;-66
2024/01/27 02:26:54;;;;;;;10.30;2.20;;;;;;;4.79;79.34;101206.77;111025;1206;101425;-66
2024/01/27 02:29:19;;;;;;;13.10;2.00;;;;;;;4.79;79.60;101208.55;111086;1206;140433;-66
2024/01/27 02:31:45;;;;;;;11.90;1.30;;;;;;;4.80;79.41;101226.25;111022;1218;99028;-66
2024/01/27 02:34:10;;;;;;;12.30;2.00;;;;;;;4.78;79.23;101229.09;110975;1206;138943;-66
2024/01/27 02:36:35;;;;;;;18.10;3.00;;;;;;;4.77;79.28;101222.91;111071;1209;99651;-65
2024/01/27 02:39:01;;;;;;;12.10;1.80;;;;;;;4.78;79.35;101223.42;111108;1208;100347;-66
2024/01/27 02:41:26;;;;;;;12.00;1.80;;;;;;;4.79;79.35;101223.60;111047;1206;139438;-66
2024/01/27 02:43:52;;;;;;;12.20;1.70;;;;;;;4.78;79.12;101224.14;111033;1205;99040;-66
2024/01/27 02:46:18;;;;;;;11.40;2.00;;;;;;;4.78;78.95;101234.21;111047;1207;139982;-66
2024/01/27 02:48:46;;;;;;;24.60;2.40;;;;;;;4.76;78.92;101227.88;111102;1207;99006;-66
2024/01/27 02:51:11;;;;;;;16.40;2.50;;;;;;;4.75;78.85;101225.77;111182;1206;98931;-65
2024/01/27 02:53:36;;;;;;;13.60;2.10;;;;;;;4.74;78.72;101236.73;110896;1208;138119;-66
2024/01/27 02:56:01;;;;;;;15.70;2.30;;;;;;;4.73;78.71;101231.27;111164;1206;99583;-66
2024/01/27 02:58:27;;;;;;;9.20;1.90;;;;;;;4.72;78.78;101232.52;110937;1208;139429;-66
2024/01/27 03:00:52;;;;;;;15.10;2.80;;;;;;;4.71;78.63;101230.41;111113;1209;98935;-66
2024/01/27 03:03:20;;;;;;;16.80;2.20;;;;;;;4.70;78.80;101226.69;111081;1208;98953;-66
2024/01/27 03:05:50;;;;;;;8.00;2.00;;;;;;;4.70;78.74;101227.23;110949;1206;139917;-66
2024/01/27 03:08:15;;;;;;;13.00;2.20;;;;;;;4.69;78.40;101231.13;111013;1208;108588;-66
2024/01/27 03:10:41;;;;;;;15.90;2.30;;;;;;;4.68;78.54;101229.02;110816;1207;141703;-65
2024/01/27 03:13:06;;;;;;;9.90;2.00;;;;;;;4.69;78.59;101215.56;111139;1206;99360;-65
2024/01/27 03:15:32;;;;;;;7.20;1.60;;;;;;;4.70;78.45;101232.00;111095;1208;99047;-65
2024/01/27 03:17:57;;;;;;;11.00;1.80;;;;;;;4.69;78.18;101227.77;110914;1206;139744;-66
2024/01/27 03:20:22;;;;;;;10.30;1.90;;;;;;;4.69;78.34;101215.56;111107;1209;99049;-66
2024/01/27 03:22:47;;;;;;;15.20;1.70;;;;;;;4.71;78.29;101219.95;110841;1208;138955;-65
2024/01/27 03:25:13;;;;;;;12.30;2.20;;;;;;;4.70;78.23;101217.50;111097;1205;100126;-66
2024/01/27 03:27:42;;;;;;;15.40;2.00;;;;;;;4.70;78.17;101228.81;111046;1206;99040;-65
2024/01/27 03:30:11;;;;;;;12.70;1.70;;;;;;;4.70;78.31;101228.83;110903;1208;138643;-66
2024/01/27 03:32:36;;;;;;;9.10;1.40;;;;;;;4.71;78.11;101230.41;110989;1206;114446;-65
2024/01/27 03:35:02;;;;;;;7.90;1.60;;;;;;;4.70;78.20;101224.58;110970;1206;140296;-66
2024/01/27 03:37:28;;;;;;;14.60;1.80;;;;;;;4.69;78.17;101220.33;111191;1218;100209;-66
2024/01/27 03:39:56;;;;;;;15.00;2.20;;;;;;;4.67;78.11;101220.89;111071;1206;99008;-68
2024/01/27 03:42:21;;;;;;;15.70;2.30;;;;;;;4.69;77.93;101240.88;110962;1208;138263;-66
2024/01/27 03:44:47;;;;;;;11.80;1.40;;;;;;;4.68;78.15;101240.17;110937;1208;99060;-65
2024/01/27 03:47:13;;;;;;;12.70;2.20;;;;;;;4.69;78.08;101246.89;110930;1208;138873;-66
2024/01/27 03:49:39;;;;;;;8.60;1.60;;;;;;;4.68;77.96;101247.27;111157;1207;99254;-65
2024/01/27 03:52:07;;;;;;;8.20;1.60;;;;;;;4.66;77.83;101249.58;111017;1208;99064;-67
2024/01/27 03:54:38;;;;;;;18.10;2.20;;;;;;;4.65;77.89;101247.82;111168;1208;138568;-67
2024/01/27 03:57:03;;;;;;;;;;;;;;;4.64;77.69;101243.74;111032;1206;108854;-65
2024/01/27 03:59:30;;;;;;;12.50;1.80;;;;;;;4.60;77.73;101254.06;110877;1206;126617;-66
2024/01/27 04:01:58;;;;;;;10.40;1.90;;;;;;;4.53;77.66;101222.45;111195;1206;99069;-67
2024/01/27 04:04:31;;;;;;;13.50;2.10;;;;;;;4.58;77.53;101247.70;111085;1209;140713;-67
2024/01/27 04:07:01;;;;;;;11.90;1.50;;;;;;;4.55;77.56;101247.02;111056;1204;108121;-67
2024/01/27 04:09:27;;;;;;;18.80;3.00;;;;;;;4.54;77.77;101242.60;111230;1206;99121;-66
2024/01/27 04:11:52;;;;;;;11.40;2.60;;;;;;;4.56;77.77;101254.63;110979;1207;140118;-66
2024/01/27 04:14:17;;;;;;;13.70;1.90;;;;;;;4.55;77.68;101257.11;111272;1208;97817;-65
2024/01/27 04:16:42;;;;;;;16.10;2.70;;;;;;;4.53;77.36;101259.08;110933;1209;139064;-65
2024/01/27 04:19:08;;;;;;;17.10;1.90;;;;;;;4.52;77.44;101251.13;111208;1208;99062;-65
2024/01/27 04:21:33;;;;;;;14.70;2.00;;;;;;;4.51;77.42;101263.52;111044;1209;99107;-65
2024/01/27 04:23:58;;;;;;;16.60;2.60;;;;;;;4.50;77.29;101268.84;111090;1208;138644;-65
2024/01/27 04:26:24;;;;;;;9.60;1.80;;;;;;;4.48;77.42;101267.96;111112;1206;99032;-66
2024/01/27 04:28:58;;;;;;;11.90;3.00;;;;;;;4.48;77.36;101271.52;111020;1209;139056;-65
2024/01/27 04:31:25;;;;;;;12.30;2.50;;;;;;;4.48;77.50;101263.72;111423;1206;112059;-65
2024/01/27 04:33:56;;;;;;;11.70;2.10;;;;;;;4.48;77.38;101281.59;111087;1208;98950;-65
2024/01/27 04:36:29;;;;;;;9.90;2.70;;;;;;;4.46;77.04;101280.55;111008;1221;139157;-65
2024/01/27 04:38:55;;;;;;;7.50;2.00;;;;;;;4.42;77.35;101264.84;111199;1222;99018;-65
2024/01/27 04:41:21;;;;;;;17.50;2.00;;;;;;;4.39;77.23;101273.52;111060;1208;138517;-66
2024/01/27 04:43:46;;;;;;;11.80;3.70;;;;;;;4.37;77.34;101265.23;111064;1206;98920;-66
2024/01/27 04:46:12;;;;;;;9.10;1.50;;;;;;;4.35;77.17;101276.21;110930;1208;139613;-66
2024/01/27 04:48:37;;;;;;;16.10;2.70;;;;;;;4.34;77.18;101285.06;110999;1206;99030;-65
2024/01/27 04:51:06;;;;;;;15.30;3.40;;;;;;;4.32;77.38;101273.76;111096;1208;98909;-67
2024/01/27 04:53:31;;;;;;;14.00;2.00;;;;;;;4.32;77.21;101287.38;110831;1209;138722;-66
2024/01/27 04:55:56;;;;;;;12.60;1.80;;;;;;;4.34;77.27;101279.05;110924;1205;98937;-65
2024/01/27 04:58:21;;;;;;;12.00;1.80;;;;;;;4.34;77.40;101267.37;111038;1209;139424;-66
2024/01/27 05:00:46;;;;;;;10.20;2.20;;;;;;;4.36;77.34;101275.85;111047;1206;99231;-66
2024/01/27 05:03:13;;;;;;;18.00;1.70;;;;;;;4.36;77.17;101280.09;111257;1206;99031;-65
2024/01/27 05:05:42;;;;;;;16.90;2.00;;;;;;;4.35;77.21;101297.98;110926;1222;139065;-65
2024/01/27 05:08:09;;;;;;;14.40;2.10;;;;;;;4.34;77.16;101280.46;111172;1219;98462;-65
2024/01/27 05:10:34;;;;;;;13.80;2.10;;;;;;;4.33;77.09;101302.94;111027;1208;139229;-65
2024/01/27 05:12:59;;;;;;;16.90;2.00;;;;;;;4.32;76.99;101279.60;111221;1220;99028;-65
2024/01/27 05:15:25;;;;;;;16.00;2.50;;;;;;;4.32;77.24;101278.36;111103;1206;99024;-65
2024/01/27 05:17:51;;;;;;;8.60;1.60;;;;;;;4.32;77.17;101267.04;110991;1206;139466;-65
2024/01/27 05:20:17;;;;;;;11.80;1.90;;;;;;;4.32;77.20;101269.69;111393;1206;98940;-65
2024/01/27 05:22:42;;;;;;;12.50;2.10;;;;;;;4.31;77.48;101276.24;110929;1219;140472;-65
2024/01/27 05:25:08;;;;;;;14.90;2.60;;;;;;;4.32;77.24;101270.04;111005;1208;99015;-65
2024/01/27 05:27:33;;;;;;;11.40;2.50;;;;;;;4.33;77.22;101276.05;111141;1206;100860;-65
2024/01/27 05:29:58;;;;;;;15.30;3.30;;;;;;;4.34;77.39;101261.18;111055;1209;139438;-66
2024/01/27 05:32:24;;;;;;;16.90;2.50;;;;;;;4.35;77.17;101288.08;111217;1209;98971;-65
2024/01/27 05:34:49;;;;;;;10.10;1.70;;;;;;;4.33;77.29;101284.19;111057;1208;138928;-65
2024/01/27 05:37:14;;;;;;;11.30;2.20;;;;;;;4.32;77.27;101285.44;111159;1208;98957;-65
2024/01/27 05:39:39;;;;;;;15.60;1.80;;;;;;;4.31;77.27;101275.89;111187;1215;98903;-65
2024/01/27 05:42:05;;;;;;;12.30;1.80;;;;;;;4.31;77.21;101276.77;111074;1203;138766;-65
2024/01/27 05:44:30;;;;;;;16.10;2.10;;;;;;;4.31;77.23;101300.84;111207;1203;98941;-65
2024/01/27 05:46:56;;;;;;;11.30;2.40;;;;;;;4.28;77.10;101298.02;111069;1206;138995;-65
2024/01/27 05:49:21;;;;;;;11.10;1.60;;;;;;;4.27;77.17;101305.29;111191;1217;98996;-65
2024/01/27 05:51:46;;;;;;;13.50;2.90;;;;;;;4.27;77.07;101313.42;111128;1209;100431;-64
2024/01/27 05:54:14;;;;;;;18.30;3.40;;;;;;;4.27;77.28;101314.84;110983;1203;139413;-65
2024/01/27 05:56:40;;;;;;;14.20;2.10;;;;;;;4.26;77.28;101305.83;111201;1208;100106;-65
2024/01/27 05:59:06;;;;;;;15.40;2.30;;;;;;;4.27;77.14;101322.98;111129;1208;138887;-65
2024/01/27 06:01:31;;;;;;;9.40;2.20;;;;;;;4.26;77.17;101330.41;111256;1208;99052;-65
2024/01/27 06:03:56;;;;;;;7.40;2.10;;;;;;;4.27;77.13;101338.19;111121;1208;99212;-64
2024/01/27 06:06:21;;;;;;;17.60;3.00;;;;;;;4.26;77.18;101329.00;111133;1208;140262;-65
2024/01/27 06:08:47;;;;;;;18.50;3.40;;;;;;;4.27;77.24;101294.32;111087;1209;98988;-65
2024/01/27 06:11:12;;;;;;;18.60;2.60;;;;;;;4.27;77.15;101330.94;111142;1209;140595;-65
2024/01/27 06:13:38;;;;;;;23.40;2.70;;;;;;;4.26;77.20;101322.45;111177;1215;98954;-65
2024/01/27 06:16:08;;;;;;;8.60;1.70;;;;;;;4.27;77.30;101323.88;111139;1208;99027;-65
2024/01/27 06:18:35;;;;;;;15.60;3.10;;;;;;;4.26;77.32;101321.05;111232;1208;138364;-65
2024/01/27 06:21:03;;;;;;;16.50;2.50;;;;;;;4.25;77.39;101320.86;111327;1203;99025;-65
2024/01/27 06:23:28;;;;;;;19.80;3.80;;;;;;;4.27;77.26;101340.14;111053;1209;138758;-69
2024/01/27 06:25:53;;;;;;;14.80;3.30;;;;;;;4.26;77.32;101328.29;111212;1203;99079;-69
2024/01/27 06:28:18;;;;;;;13.70;2.50;;;;;;;4.26;77.39;101354.83;111205;1203;99194;-68
2024/01/27 06:30:43;;;;;;;14.10;2.50;;;;;;;4.22;77.18;101355.20;111000;1219;138655;-68
2024/01/27 06:33:09;;;;;;;18.60;2.20;;;;;;;4.19;77.28;101364.41;111217;1208;100001;-68
2024/01/27 06:35:34;;;;;;;17.70;2.40;;;;;;;4.17;77.44;101358.23;111053;1207;138662;-68
2024/01/27 06:37:59;;;;;;;15.10;2.30;;;;;;;4.16;77.41;101343.73;111270;1203;98741;-68
2024/01/27 06:40:24;;;;;;;13.20;2.60;;;;;;;4.16;77.47;101343.73;111048;1203;138967;-68
2024/01/27 06:42:50;;;;;;;13.40;2.60;;;;;;;4.17;77.64;101353.28;111189;1219;99385;-68
2024/01/27 06:45:15;;;;;;;8.60;2.50;;;;;;;4.19;77.72;101350.09;111208;1203;98713;-68
2024/01/27 06:47:41;;;;;;;14.30;2.60;;;;;;;4.19;77.48;101363.71;111057;1208;138635;-67
2024/01/27 06:50:07;;;;;;;17.60;2.50;;;;;;;4.19;77.81;101358.93;111296;1209;97857;-67
2024/01/27 06:52:32;;;;;;;13.60;2.00;;;;;;;4.21;77.76;101369.01;111252;1203;140570;-67
2024/01/27 06:54:57;;;;;;;18.10;3.30;;;;;;;4.22;77.58;101370.06;111207;1203;98746;-67
2024/01/27 06:57:23;;;;;;;13.40;2.20;;;;;;;4.24;77.85;101371.98;111113;1208;113892;-67
2024/01/27 06:59:55;;;;;;;9.30;2.20;;;;;;;4.26;77.69;101372.16;111036;1208;138895;-67
2024/01/27 07:02:24;;;;;;;13.30;2.90;;;;;;;4.28;77.81;101368.26;111131;1209;107982;-67
2024/01/27 07:04:50;;;;;;;16.40;3.40;;;;;;;4.30;77.87;101377.09;110968;1208;139417;-67
2024/01/27 07:07:16;;;;;;;24.70;3.90;;;;;;;4.32;77.83;101386.81;111215;1205;99050;-67
2024/01/27 07:09:41;;;;;;;13.60;3.30;;;;;;;4.35;77.96;101379.19;111060;1209;98930;-66
2024/01/27 07:12:08;;;;;;;17.00;2.60;;;;;;;4.35;77.84;101394.94;110875;1209;139806;-67
2024/01/27 07:14:33;;;;;;;15.00;2.80;;;;;;;4.37;77.80;101378.28;110986;1209;98947;-67
2024/01/27 07:16:58;;;;;;;17.00;2.20;;;;;;;4.39;77.81;101378.98;110977;1208;139390;-67
2024/01/27 07:19:24;;;;;;;18.60;3.00;;;;;;;4.40;77.88;101389.77;111115;1203;99004;-66
2024/01/27 07:21:49;;;;;;;16.70;2.60;;;;;;;4.43;77.91;101411.70;110962;1203;100224;-67
2024/01/27 07:24:14;;;;;;;9.50;2.30;;;;;;;4.45;78.04;101393.80;110917;1206;139169;-67
2024/01/27 07:26:40;;;;;;;14.40;2.70;;;;;;;4.48;77.89;101402.29;110984;1206;98964;-67
2024/01/27 07:29:05;;;;;;;15.10;2.00;;;;;;;4.49;77.92;101418.21;111001;1203;138835;-66
2024/01/27 07:31:31;;;;;;;19.20;3.60;;;;;;;4.50;77.96;101414.65;111081;1209;99034;-67
2024/01/27 07:33:56;;;;;;;13.90;2.50;;;;;;;4.53;78.16;101420.13;111055;1206;99073;-67
2024/01/27 07:36:21;;;;;;;13.20;3.70;;;;;;;4.57;78.11;101416.56;111070;1203;139539;-67
2024/01/27 07:38:47;;;;;;;19.00;2.00;;;;;;;4.59;77.96;101430.55;111003;1203;98983;-66
2024/01/27 07:41:13;;;;;;;11.10;2.30;;;;;;;4.60;78.06;101420.61;111000;1205;138829;-67
2024/01/27 07:43:38;;;;;;;18.90;3.20;;;;;;;4.63;78.12;101426.27;111153;1203;112915;-67
2024/01/27 07:46:03;;;;;;;16.20;3.10;;;;;;;4.63;77.93;101434.40;111086;1215;99048;-67
2024/01/27 07:48:29;;;;;;;17.20;2.90;;;;;;;4.63;78.01;101421.83;111047;1209;140083;-67
2024/01/27 07:50:56;;;;;;;25.30;3.60;;;;;;;4.65;78.12;101424.13;111033;1208;99059;-66
2024/01/27 07:53:21;;;;;;;10.70;2.50;;;;;;;4.66;78.01;101438.63;111014;1203;139054;-67
2024/01/27 07:55:46;;;;;;;10.20;2.30;;;;;;;4.67;78.07;101435.27;111066;1203;99640;-67
2024/01/27 07:58:12;;;;;;;14.50;3.40;;;;;;;4.68;77.99;101435.08;110975;1206;99065;-67
2024/01/27 08:00:38;;;;;;;13.40;2.20;;;;;;;4.69;77.96;101431.00;110932;1203;139414;-66
2024/01/27 08:03:03;;;;;;;15.70;3.30;;;;;;;4.71;78.06;101439.30;111030;1208;101471;-65
2024/01/27 08:05:28;;;;;;;8.60;2.60;;;;;;;4.71;77.99;101440.20;110930;1203;139004;-66
2024/01/27 08:07:53;;;;;;;17.30;3.30;;;;;;;4.72;77.97;101454.16;111060;1207;99035;-67
2024/01/27 08:10:19;;;;;;;14.90;2.80;;;;;;;4.73;77.97;101442.66;110905;1209;99034;-66
2024/01/27 08:12:44;;;;;;;9.30;2.10;;;;;;;4.73;78.08;101457.35;110399;1206;139013;-68
2024/01/27 08:15:09;;;;;;;24.20;3.70;;;;;;;4.75;78.09;101445.48;110506;1208;98912;-67
2024/01/27 08:17:34;;;;;;;19.00;3.70;;;;;;;4.76;78.00;101454.66;110600;1209;138823;-67
2024/01/27 08:20:00;;;;;;;22.20;3.30;;;;;;;4.77;78.00;101465.29;110639;1208;100513;-67
2024/01/27 08:22:25;;;;;;;12.50;3.10;;;;;;;4.78;78.07;101455.38;110444;1208;140330;-67
2024/01/27 08:24:52;;;;;;;15.40;2.30;;;;;;;4.79;78.08;101469.17;110682;1203;99389;-66
2024/01/27 08:27:17;;;;;;;15.70;3.10;;;;;;;4.79;78.12;101460.67;110701;1209;114086;-66
2024/01/27 08:29:42;;;;;;;16.80;2.70;;;;;;;4.80;78.07;101465.45;111003;1208;140086;-67
2024/01/27 08:32:09;;;;;;;12.50;2.40;;;;;;;4.81;78.17;101469.16;111189;1203;99038;-70
2024/01/27 08:34:34;;;;;;;11.40;2.60;;;;;;;4.83;78.06;101478.35;110997;1207;140369;-69
2024/01/27 08:37:01;;;;;;;14.80;3.20;;;;;;;4.83;78.03;101481.18;111178;1219;97826;-67
2024/01/27 08:39:26;;;;;;;16.10;2.60;;;;;;;4.84;78.20;101483.66;111188;1208;98919;-68
2024/01/27 08:41:52;;;;;;;25.60;3.20;;;;;;;4.85;78.13;101495.34;110965;1207;138701;-73
2024/01/27 08:44:17;;;;;;;14.40;2.20;;;;;;;4.88;78.14;101501.70;111090;1203;99032;-70
2024/01/27 08:46:43;;;;;;;20.30;2.70;;;;;;;4.89;78.14;101495.49;110975;1203;138736;-66
2024/01/27 08:49:08;;;;;;;14.70;3.00;;;;;;;4.90;78.14;101504.34;111163;1208;99277;-68
2024/01/27 08:51:34;;;;;;;14.40;3.10;;;;;;;4.92;78.08;101518.15;111063;1206;98936;-67
2024/01/27 08:53:59;;;;;;;18.10;3.00;;;;;;;4.92;78.09;101519.20;110971;1208;138825;-67
2024/01/27 08:56:25;;;;;;;16.60;2.60;;;;;;;4.92;78.23;101518.85;111148;1203;98941;-67
2024/01/27 08:58:51;;;;;;;14.60;2.70;;;;;;;4.94;78.15;101517.95;110943;1208;139282;-67
2024/01/27 09:01:17;;;;;;;21.70;2.80;;;;;;;4.95;78.26;101526.63;111119;1209;99021;-68
2024/01/27 09:03:42;;;;;;;14.30;2.90;;;;;;;4.96;78.24;101523.08;111101;1206;100221;-67
2024/01/27 09:06:07;;;;;;;17.00;3.50;;;;;;;4.98;78.22;101534.92;111079;1206;140121;-70
2024/01/27 09:08:34;;;;;;;18.20;3.00;;;;;;;4.99;78.19;101535.27;110977;1203;99126;-69
2024/01/27 09:11:00;;;;;;;21.00;2.90;;;;;;;5.00;78.11;101540.77;111065;1206;138988;-69
2024/01/27 09:13:26;;;;;;;15.20;3.30;;;;;;;5.02;78.17;101545.71;110859;1203;99787;-69
2024/01/27 09:15:52;;;;;;;10.40;2.60;;;;;;;5.06;78.26;101551.89;110532;1213;108077;-69
2024/01/27 09:18:17;;;;;;;12.80;2.30;;;;;;;5.08;78.10;101564.09;110852;1209;140642;-68
2024/01/27 09:20:42;;;;;;;18.50;3.00;;;;;;;5.07;78.10;101556.84;111131;1208;102014;-69
2024/01/27 09:23:08;;;;;;;16.00;3.20;;;;;;;5.07;78.03;101574.73;111092;1203;138998;-68
2024/01/27 09:25:33;;;;;;;15.00;3.20;;;;;;;5.07;78.23;101570.48;111074;1208;99129;-68
2024/01/27 09:28:00;;;;;;;17.90;3.00;;;;;;;5.10;78.11;101574.54;111032;1206;100211;-68
2024/01/27 09:30:26;;;;;;;16.60;3.30;;;;;;;5.12;78.18;101587.27;110996;1207;138972;-68
2024/01/27 09:32:52;;;;;;;19.20;3.00;;;;;;;5.14;78.22;101594.17;111057;1203;99085;-68
2024/01/27 09:35:17;;;;;;;13.60;2.40;;;;;;;5.16;78.15;101587.96;111081;1203;139302;-69
2024/01/27 09:37:43;;;;;;;20.10;3.30;;;;;;;5.18;78.17;101596.10;111045;1203;99443;-70
2024/01/27 09:40:09;;;;;;;18.20;3.10;;;;;;;5.17;78.14;101625.69;111221;1205;100388;-68
2024/01/27 09:42:35;;;;;;;8.70;2.70;;;;;;;5.17;78.28;101607.80;110902;1209;138981;-68
2024/01/27 09:45:02;;;;;;;13.70;2.80;;;;;;;5.20;78.16;101613.09;111235;1225;99005;-67
2024/01/27 09:47:27;;;;;;;14.60;3.50;;;;;;;5.22;78.15;101623.51;111016;1205;139071;-67
2024/01/27 09:49:53;;;;;;;20.60;3.80;;;;;;;5.22;78.03;101624.39;110941;1208;97797;-68
2024/01/27 09:52:18;;;;;;;16.10;3.90;;;;;;;5.24;78.01;101635.37;111175;1208;97932;-66
2024/01/27 09:54:43;;;;;;;16.40;3.00;;;;;;;5.25;78.09;101643.70;110918;1208;140011;-66
2024/01/27 09:57:09;;;;;;;13.40;3.50;;;;;;;5.25;77.93;101638.91;111145;1219;99777;-66
2024/01/27 09:59:36;;;;;;;11.60;2.50;;;;;;;5.27;78.02;101646.69;110931;1209;138878;-66
2024/01/27 10:02:03;;;;;;;12.50;2.30;;;;;;;5.30;78.06;101661.02;111628;1206;98999;-68
2024/01/27 10:04:30;;;;;;;18.40;2.90;;;;;;;5.33;78.09;101664.55;110948;1218;139722;-66
2024/01/27 10:06:57;;;;;;;20.90;3.00;;;;;;;5.37;77.99;101666.30;111164;1208;100174;-68
2024/01/27 10:09:23;;;;;;;16.30;3.00;;;;;;;5.39;77.94;101672.48;111090;1208;99360;-65
2024/01/27 10:11:53;;;;;;;16.40;2.90;;;;;;;5.39;78.04;101674.10;110992;1206;140205;-69
2024/01/27 10:14:19;;;;;;;14.40;2.70;;;;;;;5.42;78.14;101676.55;111256;1207;98992;-68
2024/01/27 10:16:45;;;;;;;15.30;2.30;;;;;;;5.44;77.91;101679.38;111265;1207;138870;-69
2024/01/27 10:19:18;;;;;;;19.80;4.30;;;;;;;5.47;78.05;101677.95;111805;1208;98921;-67
2024/01/27 10:21:45;;;;;;;9.90;2.30;;;;;;;5.51;77.95;101688.03;111629;1203;99680;-65
2024/01/27 10:24:10;;;;;;;16.20;3.20;;;;;;;5.53;77.92;101694.21;111659;1203;138580;-66
2024/01/27 10:26:35;;;;;;;19.10;3.30;;;;;;;5.54;77.80;101692.61;111091;1203;98994;-68
2024/01/27 10:29:02;;;;;;;18.50;3.10;;;;;;;5.57;77.94;101686.57;111387;1206;138716;-69
2024/01/27 10:31:29;;;;;;;24.40;2.80;;;;;;;5.59;77.93;101686.03;111387;1203;98536;-67
2024/01/27 10:33:56;;;;;;;12.90;3.10;;;;;;;5.62;77.83;101698.78;111073;1206;99066;-68
2024/01/27 10:36:22;;;;;;;15.50;3.70;;;;;;;5.64;77.75;101696.10;111043;1203;138868;-67
2024/01/27 10:38:47;;;;;;;13.80;2.80;;;;;;;5.65;77.69;101707.27;111179;1203;98996;-67
2024/01/27 10:41:21;;;;;;;13.10;2.70;;;;;;;5.65;77.72;101714.37;111006;1209;139211;-68
2024/01/27 10:43:50;;;;;;;15.30;3.30;;;;;;;5.65;77.75;101720.56;111190;1209;107836;-68
2024/01/27 10:46:18;;;;;;;13.00;3.00;;;;;;;5.66;77.72;101705.66;111166;1205;100427;-66
2024/01/27 10:48:49;;;;;;;17.80;3.40;;;;;;;5.68;77.77;101700.69;110975;1208;137888;-65
2024/01/27 10:51:18;;;;;;;7.90;2.00;;;;;;;5.70;77.70;101715.40;111110;1206;115168;-65
2024/01/27 10:53:47;;;;;;;16.30;3.20;;;;;;;5.68;77.45;101719.85;110972;1207;139279;-66
2024/01/27 10:56:13;;;;;;;18.00;2.70;;;;;;;5.66;77.54;101720.55;111202;1203;107980;-66
2024/01/27 10:58:41;;;;;;;22.70;3.90;;;;;;;5.64;77.35;101717.91;110908;1209;141028;-65
2024/01/27 11:01:13;;;;;;;16.30;2.80;;;;;;;5.65;77.53;101732.80;111117;1206;98966;-66
2024/01/27 11:03:39;;;;;;;19.90;3.10;;;;;;;5.68;77.46;101724.09;111191;1203;113152;-64
2024/01/27 11:06:11;;;;;;;17.30;2.70;;;;;;;5.72;77.46;101727.26;110855;1203;138940;-67
2024/01/27 11:08:39;;;;;;;13.50;2.40;;;;;;;5.74;77.36;101739.66;111293;1207;108190;-66